createdAt,value
2023-01-27T00:02:44.166Z,3.33
2023-01-27T00:07:47.773Z,2.86
2023-01-27T00:13:09.434Z,2.46
2023-01-27T00:18:12.725Z,2.12
2023-01-27T00:23:43.463Z,1.92
2023-01-27T00:28:48.061Z,1.78
2023-01-27T00:33:53.997Z,2.67
2023-01-27T00:38:57.586Z,6.00
2023-01-27T00:44:01.590Z,6.96
2023-01-27T00:49:04.615Z,5.13
2023-01-27T00:54:07.986Z,4.02
2023-01-27T00:59:10.942Z,3.44
2023-01-27T01:04:13.935Z,3.03
2023-01-27T01:09:17.284Z,2.69
2023-01-27T01:14:20.234Z,2.34
2023-01-27T01:19:23.308Z,2.05
2023-01-27T01:24:26.598Z,2.68
2023-01-27T01:29:29.662Z,5.92
2023-01-27T01:34:32.627Z,7.28
2023-01-27T01:39:35.659Z,5.63
2023-01-27T01:44:45.604Z,4.47
2023-01-27T01:49:48.607Z,3.76
2023-01-27T01:54:56.015Z,3.23
2023-01-27T02:00:07.161Z,2.78
2023-01-27T02:05:19.569Z,2.43
2023-01-27T02:10:22.511Z,2.19
2023-01-27T02:15:25.679Z,1.97
2023-01-27T02:20:44.422Z,2.92
2023-01-27T02:25:58.118Z,6.27
2023-01-27T02:31:01.638Z,6.94
2023-01-27T02:36:16.565Z,5.16
2023-01-27T02:41:27.216Z,4.11
2023-01-27T02:46:30.679Z,3.38
2023-01-27T02:51:33.634Z,2.87
2023-01-27T02:56:36.566Z,2.56
2023-01-27T03:01:39.641Z,2.30
2023-01-27T03:06:42.681Z,2.06
2023-01-27T03:12:04.257Z,2.97
2023-01-27T03:17:25.959Z,6.36
2023-01-27T03:22:28.927Z,7.03
2023-01-27T03:27:32.001Z,5.14
2023-01-27T03:32:35.256Z,3.98
2023-01-27T03:37:56.977Z,3.28
2023-01-27T03:43:18.612Z,2.68
2023-01-27T03:48:21.617Z,2.24
2023-01-27T03:53:24.730Z,3.07
2023-01-27T03:58:31.607Z,6.31
2023-01-27T04:03:54.397Z,7.10
2023-01-27T04:08:58.510Z,5.22
2023-01-27T04:14:04.455Z,4.11
2023-01-27T04:19:09.731Z,3.37
2023-01-27T04:24:24.439Z,2.76
2023-01-27T04:29:30.684Z,3.34
2023-01-27T04:34:33.909Z,6.41
2023-01-27T04:39:37.093Z,6.45
2023-01-27T04:44:40.048Z,4.50
2023-01-27T04:49:43.038Z,3.39
2023-01-27T04:54:45.975Z,2.72
2023-01-27T04:59:50.193Z,2.25
2023-01-27T05:04:53.138Z,1.93
2023-01-27T05:09:56.080Z,1.85
2023-01-27T05:14:59.353Z,4.44
2023-01-27T05:20:02.324Z,7.12
2023-01-27T05:25:06.186Z,6.78
2023-01-27T05:30:09.819Z,5.02
2023-01-27T05:35:12.853Z,4.12
2023-01-27T05:40:15.982Z,3.53
2023-01-27T05:45:19.371Z,3.01
2023-01-27T05:50:22.341Z,2.57
2023-01-27T05:55:25.538Z,2.24
2023-01-27T06:00:28.507Z,3.04
2023-01-27T06:05:31.915Z,6.34
2023-01-27T06:10:37.354Z,7.07
2023-01-27T06:15:45.381Z,5.06
2023-01-27T06:20:48.448Z,3.82
2023-01-27T06:25:51.390Z,3.02
2023-01-27T06:30:54.340Z,2.47
2023-01-27T06:36:03.138Z,2.09
2023-01-27T06:41:06.500Z,2.95
2023-01-27T06:46:09.689Z,6.20
2023-01-27T06:51:12.664Z,6.97
2023-01-27T06:56:17.221Z,5.07
2023-01-27T07:01:21.934Z,3.85
2023-01-27T07:06:24.984Z,3.10
2023-01-27T07:11:27.974Z,2.58
2023-01-27T07:16:31.021Z,3.27
2023-01-27T07:21:34.042Z,6.38
2023-01-27T07:26:37.363Z,6.55
2023-01-27T07:31:40.371Z,4.75
2023-01-27T07:36:43.391Z,3.72
2023-01-27T07:41:49.572Z,3.05
2023-01-27T07:46:52.540Z,4.28
2023-01-27T07:51:55.485Z,7.11
2023-01-27T07:57:01.743Z,7.30
2023-01-27T08:02:04.677Z,5.38
2023-01-27T08:07:08.161Z,4.28
2023-01-27T08:12:11.175Z,3.57
2023-01-27T08:17:14.138Z,3.02
2023-01-27T08:22:21.097Z,2.68
2023-01-27T08:27:24.115Z,4.99
2023-01-27T08:32:27.081Z,7.58
2023-01-27T08:37:30.040Z,7.20
2023-01-27T08:42:33.028Z,5.41
2023-01-27T08:47:35.992Z,4.38
2023-01-27T08:52:39.060Z,3.65
2023-01-27T08:57:42.190Z,3.09
2023-01-27T09:02:46.708Z,2.68
2023-01-27T09:07:49.918Z,3.41
2023-01-27T09:12:52.981Z,6.58
2023-01-27T09:17:55.969Z,7.42
2023-01-27T09:22:59.058Z,5.62
2023-01-27T09:28:02.544Z,4.48
2023-01-27T09:33:05.503Z,3.76
2023-01-27T09:38:09.373Z,3.28
2023-01-27T09:43:21.457Z,2.90
2023-01-27T09:48:53.870Z,2.63
2023-01-27T09:54:39.153Z,2.42
2023-01-27T09:59:58.083Z,3.72
2023-01-27T10:05:26.476Z,6.79
2023-01-27T10:10:52.132Z,5.74
2023-01-27T10:16:26.216Z,4.47
2023-01-27T10:21:44.539Z,3.82
2023-01-27T10:26:56.166Z,3.37
2023-01-27T10:32:28.419Z,3.07
2023-01-27T10:38:04.725Z,2.89
2023-01-27T10:43:34.080Z,2.74
2023-01-27T10:48:59.730Z,2.64
2023-01-27T10:54:36.872Z,2.58
2023-01-27T11:00:23.671Z,2.58
2023-01-27T11:05:29.245Z,4.04
2023-01-27T11:11:04.855Z,7.12
2023-01-27T11:16:17.043Z,6.07
2023-01-27T11:21:24.233Z,4.83
2023-01-27T11:26:48.676Z,4.19
2023-01-27T11:32:11.604Z,3.75
2023-01-27T11:37:37.480Z,3.44
2023-01-27T11:42:40.578Z,3.19
2023-01-27T11:47:45.842Z,2.95
2023-01-27T11:52:54.755Z,2.77
2023-01-27T11:59:18.142Z,2.59
2023-01-27T12:04:51.918Z,2.45
2023-01-27T12:09:55.034Z,2.33
2023-01-27T12:15:01.048Z,2.27
2023-01-27T12:20:26.588Z,2.19
2023-01-27T12:25:42.263Z,2.09
2023-01-27T12:30:47.179Z,2.03
2023-01-27T12:35:50.674Z,1.97
2023-01-27T12:41:07.081Z,1.92
2023-01-27T12:46:12.841Z,1.87
2023-01-27T12:51:44.981Z,2.80
2023-01-27T12:56:50.820Z,6.39
2023-01-27T13:02:25.244Z,6.42
2023-01-27T13:07:43.705Z,4.71
2023-01-27T13:12:54.310Z,3.85
2023-01-27T13:17:59.889Z,3.34
2023-01-27T13:23:29.330Z,2.96
2023-01-27T13:28:58.443Z,2.70
2023-01-27T13:34:24.931Z,2.52
2023-01-27T13:39:59.521Z,2.35
2023-01-27T13:45:15.227Z,2.19
2023-01-27T13:50:45.904Z,2.07
2023-01-27T13:56:07.064Z,3.20
2023-01-27T14:01:18.956Z,6.56
2023-01-27T14:06:38.741Z,6.21
2023-01-27T14:11:55.548Z,4.59
2023-01-27T14:17:27.409Z,3.74
2023-01-27T14:22:36.335Z,3.16
2023-01-27T14:27:48.810Z,2.78
2023-01-27T14:33:26.548Z,2.48
2023-01-27T14:38:44.162Z,2.24
2023-01-27T14:44:17.421Z,4.59
2023-01-27T14:49:22.921Z,6.68
2023-01-27T14:55:12.399Z,5.09
2023-01-27T15:00:21.745Z,3.85
2023-01-27T15:06:01.420Z,3.23
2023-01-27T15:11:19.701Z,2.74
2023-01-27T15:16:56.431Z,2.38
2023-01-27T15:22:33.831Z,2.08
2023-01-27T15:27:37.286Z,3.27
2023-01-27T15:32:40.247Z,6.43
2023-01-27T15:38:21.747Z,7.32
2023-01-27T15:43:25.617Z,5.42
2023-01-27T15:48:38.224Z,4.37
2023-01-27T15:53:58.081Z,3.69
2023-01-27T15:59:05.469Z,3.18
2023-01-27T16:04:17.591Z,2.82
2023-01-27T16:09:32.747Z,2.51
2023-01-27T16:14:43.153Z,2.27
2023-01-27T16:19:58.315Z,3.12
2023-01-27T16:25:13.560Z,6.54
2023-01-27T16:30:36.077Z,7.16
2023-01-27T16:35:46.614Z,5.26
2023-01-27T16:41:03.740Z,4.21
2023-01-27T16:46:39.343Z,3.52
2023-01-27T16:51:42.949Z,3.01
2023-01-27T16:56:50.428Z,2.67
2023-01-27T17:02:01.756Z,2.39
2023-01-27T17:07:16.122Z,2.19
2023-01-27T17:12:35.531Z,2.11
2023-01-27T17:17:39.257Z,4.61
2023-01-27T17:22:43.974Z,7.02
2023-01-27T17:27:47.110Z,5.72
2023-01-27T17:32:54.980Z,4.43
2023-01-27T17:38:25.012Z,3.65
2023-01-27T17:43:36.152Z,3.04
2023-01-27T17:48:43.912Z,2.63
2023-01-27T17:53:47.618Z,2.29
2023-01-27T17:58:59.096Z,2.04
2023-01-27T18:04:03.132Z,1.83
2023-01-27T18:09:27.400Z,1.71
2023-01-27T18:14:35.552Z,1.62
2023-01-27T18:19:50.580Z,1.53
2023-01-27T18:25:01.615Z,1.46
2023-01-27T18:30:19.181Z,1.43
2023-01-27T18:35:33.767Z,1.43
2023-01-27T18:40:37.262Z,1.40
2023-01-27T18:45:43.256Z,1.36
2023-01-27T18:50:47.492Z,1.34
2023-01-27T18:55:52.728Z,2.32
2023-01-27T19:00:58.072Z,5.79
2023-01-27T19:06:01.704Z,5.92
2023-01-27T19:11:04.919Z,4.32
2023-01-27T19:16:13.910Z,3.45
2023-01-27T19:21:17.004Z,2.90
2023-01-27T19:26:22.928Z,2.49
2023-01-27T19:31:26.233Z,2.15
2023-01-27T19:36:45.890Z,1.88
2023-01-27T19:41:48.905Z,1.69
2023-01-27T19:46:51.896Z,1.54
2023-01-27T19:51:54.862Z,1.42
2023-01-27T19:56:57.908Z,1.35
2023-01-27T20:02:01.956Z,1.32
2023-01-27T20:07:06.703Z,1.31
2023-01-27T20:12:18.223Z,1.27
2023-01-27T20:17:21.626Z,1.44
2023-01-27T20:22:26.455Z,4.39
2023-01-27T20:27:29.576Z,5.93
2023-01-27T20:32:32.528Z,4.36
2023-01-27T20:37:35.508Z,3.37
2023-01-27T20:42:38.460Z,2.78
2023-01-27T20:47:41.694Z,2.35
2023-01-27T20:52:44.932Z,1.99
2023-01-27T20:57:48.572Z,1.70
2023-01-27T21:02:51.569Z,1.49
2023-01-27T21:07:54.528Z,1.38
2023-01-27T21:12:57.537Z,1.28
2023-01-27T21:18:00.484Z,1.19
2023-01-27T21:23:03.466Z,1.12
2023-01-27T21:28:06.446Z,1.09
2023-01-27T21:33:09.521Z,1.06
2023-01-27T21:38:16.617Z,1.04
2023-01-27T21:43:38.144Z,1.00
2023-01-27T21:48:41.117Z,0.97
2023-01-27T21:53:44.084Z,0.97
2023-01-27T21:58:47.044Z,0.95
2023-01-27T22:03:50.003Z,0.92
2023-01-27T22:08:52.985Z,0.91
2023-01-27T22:13:55.919Z,0.91
2023-01-27T22:18:58.879Z,0.90
2023-01-27T22:24:02.409Z,0.90
2023-01-27T22:29:05.715Z,1.91
2023-01-27T22:34:09.430Z,5.37
2023-01-27T22:39:12.400Z,6.31
2023-01-27T22:44:15.330Z,4.65
2023-01-27T22:49:18.296Z,3.65
2023-01-27T22:54:21.254Z,3.03
2023-01-27T22:59:24.196Z,2.50
2023-01-27T23:04:27.240Z,2.07
2023-01-27T23:09:31.281Z,1.77
2023-01-27T23:14:35.561Z,1.55
2023-01-27T23:19:38.586Z,1.35
2023-01-27T23:24:41.554Z,1.23
2023-01-27T23:29:44.515Z,1.12
2023-01-27T23:34:48.269Z,1.06
2023-01-27T23:39:51.225Z,1.01
2023-01-27T23:44:54.184Z,0.94
2023-01-27T23:49:57.149Z,0.91
2023-01-27T23:55:00.111Z,0.92
